Time;durP1;ratioP1;P1;durP2;ratioP2;P2;SDS_P1;SDS_P2;PMS_P1;PMS_P2;Temp;Humidity;BMP_temperature;BMP_pressure;BME280_temperature;BME280_humidity;BME280_pressure;Samples;Min_cycle;Max_cycle;Signal;HPM_P1;HPM_P2
2022/08/07 00:02:29;;;;;;;3.80;2.03;;;;;;;11.36;89.70;102028.94;6025263;28;20521;-63
2022/08/07 00:05:25;;;;;;;3.33;1.90;;;;;;;11.29;88.55;102035.72;6026145;28;20035;-64
2022/08/07 00:08:21;;;;;;;5.10;1.80;;;;;;;10.95;89.06;102025.97;6025843;28;20034;-64
2022/08/07 00:11:17;;;;;;;3.53;1.80;;;;;;;11.03;89.44;102020.94;6023945;28;20033;-64
2022/08/07 00:14:12;;;;;;;3.30;1.73;;;;;;;11.45;88.80;102022.06;6025709;28;20033;-64
2022/08/07 00:17:07;;;;;;;6.07;2.30;;;;;;;11.39;87.43;102023.41;6025232;28;20062;-64
2022/08/07 00:20:04;;;;;;;3.93;1.97;;;;;;;11.38;86.01;102015.56;6024851;28;20030;-65
2022/08/07 00:22:59;;;;;;;3.95;1.90;;;;;;;11.06;87.72;102018.06;6025225;28;20281;-64
2022/08/07 00:25:55;;;;;;;4.00;2.17;;;;;;;11.14;88.97;102019.13;6025092;28;20038;-64
2022/08/07 00:28:50;;;;;;;3.90;2.10;;;;;;;11.22;87.84;102011.41;6016943;28;20058;-63
2022/08/07 00:31:45;;;;;;;4.93;2.30;;;;;;;11.28;87.87;102018.91;6020534;28;20026;-64
2022/08/07 00:34:41;;;;;;;4.87;2.37;;;;;;;11.39;86.80;102009.31;6025127;28;20283;-63
2022/08/07 00:37:36;;;;;;;4.03;2.35;;;;;;;11.00;87.96;102010.56;6024952;28;20054;-63
2022/08/07 00:40:32;;;;;;;4.13;2.10;;;;;;;10.67;88.76;102003.31;6023871;28;20034;-65
2022/08/07 00:43:27;;;;;;;5.68;2.60;;;;;;;10.57;89.60;102015.59;6023699;28;20089;-63
2022/08/07 00:46:22;;;;;;;6.03;2.85;;;;;;;10.45;90.47;102009.38;6022654;28;20034;-64
2022/08/07 00:49:18;;;;;;;4.20;2.33;;;;;;;10.57;91.40;102008.44;6024834;28;20038;-63
2022/08/07 00:52:13;;;;;;;4.82;2.42;;;;;;;10.81;89.73;101999.63;6024329;28;20667;-64
2022/08/07 00:55:09;;;;;;;5.90;2.40;;;;;;;11.27;89.49;102014.59;6024468;28;20038;-63
2022/08/07 00:58:04;;;;;;;5.75;2.63;;;;;;;10.98;88.46;102002.69;6024595;28;20193;-64
2022/08/07 01:01:00;;;;;;;4.17;2.40;;;;;;;11.13;88.21;102006.00;6023460;28;20026;-63
2022/08/07 01:03:55;;;;;;;4.50;2.10;;;;;;;11.04;87.74;102019.94;6024441;28;20134;-63
2022/08/07 01:06:51;;;;;;;5.22;2.38;;;;;;;10.87;88.76;102009.78;6024283;28;20297;-64
2022/08/07 01:09:46;;;;;;;7.30;2.97;;;;;;;10.93;88.54;102011.97;6023980;28;20041;-63
2022/08/07 01:12:42;;;;;;;7.50;2.53;;;;;;;10.60;90.09;102002.94;6023585;28;20037;-64
2022/08/07 01:15:37;;;;;;;5.82;2.45;;;;;;;11.14;89.58;102015.66;6023918;28;20076;-64
2022/08/07 01:18:33;;;;;;;5.45;2.75;;;;;;;11.01;89.58;102018.38;6024395;28;20034;-64
2022/08/07 01:21:28;;;;;;;5.65;2.63;;;;;;;10.77;89.40;102017.59;6023391;28;20239;-64
2022/08/07 01:24:26;;;;;;;7.80;2.53;;;;;;;10.38;90.47;102013.44;6023487;28;20608;-63
2022/08/07 01:27:21;;;;;;;6.85;2.55;;;;;;;10.24;91.92;101999.50;6022600;28;20265;-64
2022/08/07 01:30:17;;;;;;;4.60;2.70;;;;;;;10.71;91.30;102004.78;6021656;28;20419;-65
2022/08/07 01:33:12;;;;;;;8.10;2.93;;;;;;;10.34;91.20;102000.53;6023568;28;20281;-65
2022/08/07 01:36:09;;;;;;;5.82;2.58;;;;;;;10.49;92.34;102010.84;6017234;28;20132;-65
2022/08/07 01:39:04;;;;;;;4.13;2.20;;;;;;;10.14;92.44;102001.97;6022114;28;20026;-63
2022/08/07 01:42:00;;;;;;;4.33;2.10;;;;;;;10.28;93.79;102004.47;6023449;28;20033;-64
2022/08/07 01:44:55;;;;;;;6.07;2.83;;;;;;;10.71;92.53;101996.81;6023488;28;20332;-64
2022/08/07 01:47:52;;;;;;;5.65;2.53;;;;;;;11.34;91.00;101999.88;6020736;28;20748;-65
2022/08/07 01:50:50;;;;;;;8.93;3.03;;;;;;;11.31;88.56;101999.25;6022663;28;20113;-65
2022/08/07 01:53:49;;;;;;;7.53;2.53;;;;;;;11.06;88.73;102010.09;6021929;28;20105;-64
2022/08/07 01:56:56;;;;;;;5.28;2.72;;;;;;;11.16;88.35;101993.34;6023402;28;20030;-64
2022/08/07 02:00:06;;;;;;;6.30;3.20;;;;;;;11.09;88.29;101997.41;6021831;28;20026;-65
2022/08/07 02:03:06;;;;;;;6.55;3.03;;;;;;;10.79;88.63;101991.78;6023300;28;20030;-64
2022/08/07 02:06:04;;;;;;;6.25;2.72;;;;;;;10.74;88.13;101983.31;6022174;28;20041;-64
2022/08/07 02:09:03;;;;;;;5.70;2.58;;;;;;;10.59;88.66;101998.59;6021933;28;20034;-64
2022/08/07 02:12:15;;;;;;;5.78;2.70;;;;;;;10.27;89.55;101993.97;6022520;28;20109;-65
2022/08/07 02:15:11;;;;;;;5.95;2.45;;;;;;;10.07;90.46;102000.69;6015677;28;20816;-65
2022/08/07 02:18:10;;;;;;;6.75;2.63;;;;;;;10.09;90.55;101990.81;6021384;28;20080;-65
2022/08/07 02:21:06;;;;;;;6.20;2.72;;;;;;;10.30;90.76;101983.16;6022178;28;20035;-65
2022/08/07 02:24:02;;;;;;;6.55;3.10;;;;;;;10.31;90.44;101985.69;6022505;28;20077;-65
2022/08/07 02:27:01;;;;;;;8.10;3.00;;;;;;;10.34;90.67;101985.47;6022363;28;20057;-64
2022/08/07 02:29:57;;;;;;;6.72;2.90;;;;;;;10.30;90.30;101973.38;6018799;28;20117;-63
2022/08/07 02:32:55;;;;;;;8.02;3.42;;;;;;;10.21;90.20;101987.31;6015251;28;20443;-65
2022/08/07 02:35:51;;;;;;;5.35;3.15;;;;;;;10.02;90.18;101979.00;6020836;28;20121;-63
2022/08/07 02:38:47;;;;;;;4.90;2.42;;;;;;;10.29;89.21;101987.63;6020923;28;20034;-63
2022/08/07 02:41:43;;;;;;;6.15;2.92;;;;;;;10.08;90.57;101989.16;6021681;28;20418;-64
2022/08/07 02:44:40;;;;;;;5.78;3.00;;;;;;;10.10;90.35;101984.59;6022246;28;20091;-64
2022/08/07 02:47:35;;;;;;;6.35;2.97;;;;;;;9.84;90.53;101988.25;6020706;28;20050;-64
2022/08/07 02:50:33;;;;;;;7.53;3.20;;;;;;;9.93;91.10;101982.28;6021624;28;20040;-63
2022/08/07 02:53:32;;;;;;;5.80;3.22;;;;;;;10.47;92.37;101969.47;6022387;28;20170;-65
2022/08/07 02:56:29;;;;;;;6.47;3.20;;;;;;;11.11;90.57;101970.75;6021195;28;20374;-64
2022/08/07 02:59:25;;;;;;;6.68;2.88;;;;;;;11.00;88.85;101979.56;6020372;28;20394;-63
2022/08/07 03:02:21;;;;;;;7.85;3.40;;;;;;;10.61;87.88;101977.25;6021180;28;20377;-65
2022/08/07 03:05:17;;;;;;;6.15;2.85;;;;;;;10.35;88.27;101987.16;6022193;28;20034;-64
2022/08/07 03:08:12;;;;;;;7.20;2.88;;;;;;;9.99;89.64;101989.81;6021884;28;20037;-65
2022/08/07 03:11:08;;;;;;;7.00;3.00;;;;;;;9.70;91.06;101988.41;6012975;28;20042;-64
2022/08/07 03:14:04;;;;;;;5.68;3.17;;;;;;;9.97;91.37;101986.44;6017507;28;20850;-64
2022/08/07 03:17:00;;;;;;;7.53;3.40;;;;;;;9.73;91.04;101985.53;6021911;28;20043;-64
2022/08/07 03:19:55;;;;;;;6.83;3.17;;;;;;;9.57;91.74;101993.72;6020749;28;20026;-65
2022/08/07 03:22:51;;;;;;;7.45;3.00;;;;;;;9.35;92.58;101996.16;6021122;28;20289;-64
2022/08/07 03:25:47;;;;;;;8.32;3.42;;;;;;;9.14;93.82;101979.97;6013590;28;20030;-63
2022/08/07 03:28:46;;;;;;;7.20;3.50;;;;;;;9.05;94.24;101983.25;6019717;28;20038;-64
2022/08/07 03:31:42;;;;;;;9.27;3.10;;;;;;;9.68;95.56;101995.59;6018552;28;20089;-64
2022/08/07 03:34:38;;;;;;;7.88;2.83;;;;;;;9.39;94.21;101992.34;6016862;28;20045;-65
2022/08/07 03:37:35;;;;;;;5.78;3.42;;;;;;;9.29;94.71;102001.91;6021497;28;20058;-64
2022/08/07 03:40:31;;;;;;;6.03;3.20;;;;;;;9.06;94.89;101995.53;6019913;28;20034;-64
2022/08/07 03:43:26;;;;;;;8.63;3.15;;;;;;;8.88;95.82;101988.84;6020522;28;20038;-64
2022/08/07 03:46:22;;;;;;;6.38;3.22;;;;;;;8.98;96.71;101992.56;6022391;28;20057;-65
2022/08/07 03:49:17;;;;;;;6.15;3.42;;;;;;;9.09;97.43;101991.81;6026012;28;20041;-65
2022/08/07 03:52:13;;;;;;;6.43;3.50;;;;;;;8.99;97.94;101997.72;6018133;28;20042;-64
2022/08/07 03:55:10;;;;;;;9.23;3.88;;;;;;;8.83;97.80;101993.63;6025975;28;20153;-64
2022/08/07 03:58:05;;;;;;;11.88;4.93;;;;;;;8.79;98.40;102000.03;6025511;28;20516;-65
2022/08/07 04:01:02;;;;;;;7.28;3.38;;;;;;;8.82;98.91;101983.97;6023969;28;20026;-64
2022/08/07 04:03:58;;;;;;;8.23;3.63;;;;;;;9.12;98.87;102000.41;6025830;28;20031;-63
2022/08/07 04:06:53;;;;;;;8.38;3.92;;;;;;;9.41;99.10;102003.69;6025526;28;20105;-64
2022/08/07 04:09:49;;;;;;;6.77;3.30;;;;;;;9.67;98.15;101999.22;6025579;28;20050;-64
2022/08/07 04:12:46;;;;;;;5.45;3.10;;;;;;;9.50;96.82;101992.47;6023382;28;20057;-64
2022/08/07 04:15:42;;;;;;;7.60;3.53;;;;;;;9.86;96.54;102002.25;6025527;28;20030;-64
2022/08/07 04:18:39;;;;;;;7.30;3.45;;;;;;;9.73;95.27;101996.16;6025326;28;20065;-63
2022/08/07 04:21:34;;;;;;;5.90;2.88;;;;;;;9.91;95.11;101990.38;6024297;28;20034;-64
2022/08/07 04:24:30;;;;;;;6.85;3.33;;;;;;;9.86;94.71;102000.47;6025360;28;20095;-63
2022/08/07 04:27:26;;;;;;;5.87;2.83;;;;;;;10.39;94.94;101985.97;6016760;28;20030;-63
2022/08/07 04:30:22;;;;;;;6.10;3.17;;;;;;;10.71;92.14;101984.41;6022917;28;20034;-65
2022/08/07 04:33:18;;;;;;;5.83;3.27;;;;;;;10.58;91.88;101986.28;6025224;28;20061;-65
2022/08/07 04:36:13;;;;;;;5.13;2.60;;;;;;;10.75;91.30;101983.22;6020165;28;20105;-65
2022/08/07 04:39:09;;;;;;;5.78;2.88;;;;;;;10.89;90.00;101987.47;6021274;28;20069;-64
2022/08/07 04:42:04;;;;;;;5.50;2.90;;;;;;;11.13;89.56;101987.41;6023984;28;20113;-63
2022/08/07 04:45:01;;;;;;;6.53;2.83;;;;;;;11.31;88.97;101989.47;6024899;28;20118;-65
2022/08/07 04:48:06;;;;;;;5.57;2.30;;;;;;;12.09;88.71;101991.28;6024565;28;20485;-63
2022/08/07 04:51:09;;;;;;;5.20;2.80;;;;;;;12.29;84.71;101999.31;6020379;28;20034;-65
2022/08/07 04:54:33;;;;;;;5.80;2.83;;;;;;;12.66;83.27;102006.94;6025161;28;20441;-64
2022/08/07 04:58:10;;;;;;;4.93;2.58;;;;;;;13.12;80.80;101996.78;6020251;28;20042;-64
2022/08/07 05:01:15;;;;;;;7.30;2.95;;;;;;;13.25;79.80;101992.09;6022290;28;20038;-64
2022/08/07 05:04:27;;;;;;;7.82;3.33;;;;;;;13.70;77.49;102000.56;6024350;28;20064;-65
2022/08/07 05:07:31;;;;;;;5.95;3.38;;;;;;;13.95;77.82;102000.09;6024059;28;20049;-64
2022/08/07 05:10:36;;;;;;;5.50;2.83;;;;;;;14.42;74.97;101992.34;6023704;28;20100;-65
2022/08/07 05:13:35;;;;;;;5.60;3.00;;;;;;;14.89;72.78;102003.00;6022686;28;20034;-65
2022/08/07 05:16:32;;;;;;;5.95;2.72;;;;;;;15.71;68.65;101991.72;6024311;28;20030;-64
2022/08/07 05:19:34;;;;;;;6.45;3.10;;;;;;;14.70;69.88;101996.88;6015631;28;20027;-64
2022/08/07 05:22:30;;;;;;;6.03;2.95;;;;;;;15.04;68.08;101994.56;6022931;28;20042;-65
2022/08/07 05:25:26;;;;;;;5.90;3.35;;;;;;;15.24;67.11;101996.22;6022463;28;20089;-63
2022/08/07 05:28:22;;;;;;;5.68;2.92;;;;;;;15.82;65.55;101994.19;6019773;28;20034;-64
2022/08/07 05:31:19;;;;;;;5.70;3.25;;;;;;;15.46;65.15;102001.25;6023210;28;20038;-63
2022/08/07 05:34:15;;;;;;;6.45;2.97;;;;;;;16.08;63.68;102000.53;6015100;28;20720;-64
2022/08/07 05:37:12;;;;;;;8.00;3.22;;;;;;;16.13;62.76;102010.78;6022351;28;20113;-65
2022/08/07 05:40:09;;;;;;;8.95;3.25;;;;;;;15.67;63.27;102001.88;6021379;28;20037;-63
2022/08/07 05:43:04;;;;;;;5.50;2.67;;;;;;;16.62;63.06;101992.41;6022486;28;20497;-65
2022/08/07 05:46:01;;;;;;;5.85;3.03;;;;;;;16.63;59.79;101987.91;6023620;28;20026;-63
2022/08/07 05:48:57;;;;;;;7.15;3.33;;;;;;;16.35;62.91;102000.50;6038144;28;20026;-65
2022/08/07 05:51:52;;;;;;;5.38;3.25;;;;;;;15.82;62.83;101996.84;6022865;28;20511;-64
2022/08/07 05:54:48;;;;;;;6.90;3.40;;;;;;;16.61;60.44;102003.28;6023134;28;20034;-65
2022/08/07 05:57:44;;;;;;;6.93;2.90;;;;;;;17.36;58.91;101988.44;6021528;28;20037;-64
2022/08/07 06:00:40;;;;;;;6.28;2.80;;;;;;;17.76;59.02;101989.50;6022289;28;20038;-65
2022/08/07 06:03:37;;;;;;;7.65;3.60;;;;;;;17.11;57.79;101999.00;6021436;28;20073;-64
2022/08/07 06:06:33;;;;;;;7.43;3.13;;;;;;;16.30;62.76;102002.78;6022162;28;20080;-64
2022/08/07 06:09:29;;;;;;;7.38;3.40;;;;;;;17.45;60.09;102007.09;6020904;28;20484;-64
2022/08/07 06:12:24;;;;;;;5.70;3.10;;;;;;;18.08;59.19;101998.66;6021309;28;20100;-64
2022/08/07 06:15:21;;;;;;;6.97;3.55;;;;;;;18.09;58.27;101997.69;6022963;28;20030;-64
2022/08/07 06:18:17;;;;;;;7.00;3.40;;;;;;;18.11;58.90;102001.88;6022600;28;20037;-64
2022/08/07 06:21:14;;;;;;;5.93;3.30;;;;;;;18.09;58.56;102008.41;6037213;28;20385;-65
2022/08/07 06:24:09;;;;;;;10.00;3.80;;;;;;;17.44;58.96;102004.56;6022542;28;20030;-64
2022/08/07 06:27:05;;;;;;;8.77;3.20;;;;;;;18.12;57.77;102005.41;6022803;28;20049;-65
2022/08/07 06:30:00;;;;;;;7.70;3.43;;;;;;;18.06;57.86;102023.00;6019247;28;20262;-64
2022/08/07 06:32:55;;;;;;;11.27;3.20;;;;;;;18.30;56.38;102006.97;6022644;28;20065;-64
2022/08/07 06:35:51;;;;;;;5.37;2.90;;;;;;;18.41;56.94;102013.88;6022611;28;20309;-65
2022/08/07 06:38:46;;;;;;;5.90;3.37;;;;;;;18.75;56.07;101992.28;6022239;28;20352;-64
2022/08/07 06:41:45;;;;;;;7.10;3.40;;;;;;;18.34;57.79;101994.88;6021795;28;20369;-65
2022/08/07 06:44:43;;;;;;;6.15;3.38;;;;;;;18.92;54.72;102010.06;6020950;28;20038;-65
2022/08/07 06:47:39;;;;;;;5.35;2.75;;;;;;;19.00;54.64;102012.75;6021220;28;20370;-64
2022/08/07 06:50:35;;;;;;;7.28;3.53;;;;;;;18.43;57.37;102019.91;6014663;28;20069;-65
2022/08/07 06:53:33;;;;;;;7.07;3.03;;;;;;;19.22;54.51;102009.38;6022023;28;20044;-65
2022/08/07 06:56:38;;;;;;;6.75;3.20;;;;;;;19.34;54.52;102002.63;6013976;28;20030;-63
2022/08/07 06:59:39;;;;;;;7.35;3.17;;;;;;;20.16;52.15;101996.78;6018440;28;20030;-63
2022/08/07 07:02:35;;;;;;;5.70;3.30;;;;;;;19.46;53.92;102003.97;6019116;28;20038;-64
2022/08/07 07:05:30;;;;;;;7.95;3.63;;;;;;;19.09;55.58;102008.22;6017182;28;20640;-64
2022/08/07 07:08:28;;;;;;;6.20;3.53;;;;;;;19.10;55.62;102005.38;6022149;28;20034;-64
2022/08/07 07:11:23;;;;;;;7.20;2.95;;;;;;;19.70;56.42;101997.69;6021540;28;20034;-63
2022/08/07 07:14:20;;;;;;;7.28;3.60;;;;;;;20.22;52.45;101994.41;6021926;28;20178;-65
2022/08/07 07:17:42;;;;;;;6.57;3.13;;;;;;;19.37;53.57;102004.16;6022155;28;20038;-65
2022/08/07 07:20:42;;;;;;;6.40;3.20;;;;;;;20.57;50.55;101991.19;6013849;28;20045;-63
2022/08/07 07:23:37;;;;;;;6.82;2.83;;;;;;;20.57;49.84;101993.88;6021250;28;20042;-65
2022/08/07 07:26:33;;;;;;;6.50;3.22;;;;;;;20.45;50.84;102003.38;6026476;28;20041;-65
2022/08/07 07:29:32;;;;;;;8.15;3.13;;;;;;;20.52;52.02;101996.28;6025002;28;20541;-65
2022/08/07 07:32:30;;;;;;;6.10;3.00;;;;;;;21.18;49.12;101982.06;6017240;28;20039;-65
2022/08/07 07:35:26;;;;;;;6.50;3.63;;;;;;;20.72;48.53;101989.34;6024036;28;20026;-65
2022/08/07 07:38:24;;;;;;;7.55;2.90;;;;;;;20.16;49.90;101996.78;6017876;28;20042;-65
2022/08/07 07:41:21;;;;;;;6.85;2.92;;;;;;;20.17;50.96;101992.22;6024403;28;20153;-65
2022/08/07 07:44:19;;;;;;;6.30;2.92;;;;;;;20.18;49.81;101973.22;6026508;28;20050;-65
2022/08/07 07:47:15;;;;;;;6.93;3.25;;;;;;;20.32;49.60;101976.19;6024692;28;20031;-65
2022/08/07 07:50:12;;;;;;;5.95;3.17;;;;;;;20.38;48.71;101988.94;6024641;28;20441;-65
2022/08/07 07:53:08;;;;;;;5.78;2.50;;;;;;;20.99;48.16;101977.16;6026054;28;20346;-63
2022/08/07 07:56:04;;;;;;;5.55;2.75;;;;;;;21.15;47.30;101972.47;6023185;28;20030;-64
2022/08/07 07:59:01;;;;;;;6.05;2.92;;;;;;;20.73;47.96;101972.16;6026024;28;20104;-65
2022/08/07 08:01:57;;;;;;;6.35;2.90;;;;;;;21.04;46.85;101966.66;6023657;28;20063;-65
2022/08/07 08:04:53;;;;;;;6.22;3.03;;;;;;;21.07;47.00;101969.84;6025880;28;20034;-64
2022/08/07 08:07:48;;;;;;;6.13;2.47;;;;;;;21.15;46.73;101963.53;6024632;28;20061;-64
2022/08/07 08:10:45;;;;;;;5.77;2.10;;;;;;;21.33;46.56;101959.44;6023597;28;20576;-64
2022/08/07 08:13:44;;;;;;;3.58;2.13;;;;;;;21.67;44.76;101971.53;6021062;28;20315;-66
2022/08/07 08:16:42;;;;;;;4.00;2.10;;;;;;;21.44;46.08;101958.16;6018603;28;20553;-63
2022/08/07 08:19:39;;;;;;;3.78;2.17;;;;;;;21.50;46.54;101964.69;6016986;28;20379;-64
2022/08/07 08:29:05;;;;;;;4.55;2.10;;;;;;;21.51;44.78;101952.84;6011564;28;20034;-64
2022/08/07 08:32:03;;;;;;;3.95;1.88;;;;;;;21.67;45.31;101956.19;6022737;28;20030;-64
2022/08/07 08:34:58;;;;;;;4.43;1.80;;;;;;;22.04;43.84;101947.09;6023887;28;20035;-64
2022/08/07 08:37:59;;;;;;;5.00;1.90;;;;;;;21.58;44.27;101951.91;6024898;28;20054;-65
2022/08/07 08:41:00;;;;;;;7.30;2.28;;;;;;;20.94;45.96;101949.91;6039230;28;20537;-65
2022/08/07 08:44:07;;;;;;;5.00;2.55;;;;;;;21.05;46.39;101954.84;6016105;28;20467;-66
2022/08/07 08:47:15;;;;;;;4.78;1.77;;;;;;;21.70;43.17;101955.81;6028389;28;20037;-64
2022/08/07 08:50:19;;;;;;;4.82;2.10;;;;;;;22.41;42.40;101951.44;6026617;28;20065;-66
2022/08/07 08:53:42;;;;;;;1.90;1.20;;;;;;;21.96;41.73;101944.50;6016106;28;20061;-66
2022/08/07 08:56:42;;;;;;;2.35;1.30;;;;;;;21.61;42.50;101938.03;6012032;28;20137;-64
2022/08/07 08:59:46;;;;;;;4.45;1.92;;;;;;;21.85;42.63;101943.09;6023220;28;20436;-65
2022/08/07 09:02:48;;;;;;;4.03;1.80;;;;;;;21.52;43.70;101951.84;6023541;28;20038;-64
2022/08/07 09:05:52;;;;;;;3.88;1.70;;;;;;;22.34;42.04;101948.66;6023049;28;20044;-64
2022/08/07 09:09:05;;;;;;;3.78;1.80;;;;;;;22.10;41.50;101946.34;6019520;28;20378;-66
2022/08/07 09:12:18;;;;;;;3.33;1.50;;;;;;;22.80;40.51;101948.31;6022251;28;20038;-64
2022/08/07 09:15:22;;;;;;;4.07;1.45;;;;;;;22.43;39.34;101947.53;6018763;28;20037;-64
2022/08/07 09:18:46;;;;;;;3.58;1.20;;;;;;;22.51;40.31;101939.28;6023150;28;20539;-66
2022/08/07 09:21:47;;;;;;;3.10;1.20;;;;;;;22.98;38.91;101935.13;6023781;28;20053;-64
2022/08/07 09:25:03;;;;;;;4.40;1.30;;;;;;;23.20;39.46;101935.88;6024126;28;20108;-65
2022/08/07 09:28:06;;;;;;;3.53;1.30;;;;;;;23.92;37.35;101923.53;6024191;28;20034;-65
2022/08/07 09:31:26;;;;;;;3.80;1.10;;;;;;;23.56;37.71;101918.41;6023314;28;20026;-66
2022/08/07 09:34:26;;;;;;;2.88;1.30;;;;;;;23.06;39.08;101922.28;6024157;28;20048;-64
2022/08/07 09:37:38;;;;;;;3.15;1.40;;;;;;;23.52;37.46;101911.72;6039062;28;20038;-66
2022/08/07 09:40:50;;;;;;;2.50;1.20;;;;;;;23.36;38.03;101912.03;6038418;28;20661;-65
2022/08/07 09:43:55;;;;;;;2.38;1.20;;;;;;;23.76;37.88;101910.34;6038970;28;20026;-65
2022/08/07 09:47:13;;;;;;;2.00;1.13;;;;;;;23.16;37.37;101916.50;6022714;28;20034;-66
2022/08/07 09:50:30;;;;;;;2.00;1.00;;;;;;;23.91;36.60;101907.50;6008725;28;20049;-65
2022/08/07 09:53:27;;;;;;;3.22;1.20;;;;;;;24.16;35.69;101898.59;6015194;28;20457;-64
2022/08/07 09:56:30;;;;;;;4.82;1.13;;;;;;;24.58;34.90;101905.53;6020411;28;20030;-64
2022/08/07 09:59:36;;;;;;;3.35;1.10;;;;;;;25.13;34.38;101887.13;6023524;28;20563;-64
2022/08/07 10:03:13;;;;;;;2.42;1.00;;;;;;;25.46;32.77;101896.00;6021292;28;20100;-65
2022/08/07 10:06:45;;;;;;;1.70;1.00;;;;;;;25.20;32.94;101896.91;6013367;28;20030;-66
2022/08/07 10:09:58;;;;;;;3.67;1.23;;;;;;;24.29;35.47;101878.81;6014878;28;20034;-64
2022/08/07 10:13:02;;;;;;;2.70;1.23;;;;;;;24.02;37.74;101890.63;6008575;28;20042;-65
2022/08/07 10:15:57;;;;;;;2.33;1.20;;;;;;;23.35;38.82;101887.84;6023473;28;20038;-66
2022/08/07 10:19:20;;;;;;;3.85;1.30;;;;;;;22.52;40.33;101892.28;6022646;28;20181;-66
2022/08/07 10:22:47;;;;;;;4.03;1.10;;;;;;;22.32;41.19;101890.41;6022079;28;20045;-65
2022/08/07 10:26:10;;;;;;;4.05;1.27;;;;;;;21.96;41.47;101886.97;6022505;28;20054;-65
2022/08/07 10:29:22;;;;;;;3.92;1.15;;;;;;;21.61;41.70;101877.78;6022712;28;20493;-64
2022/08/07 10:32:34;;;;;;;3.70;1.20;;;;;;;21.63;41.76;101883.84;6022003;28;20390;-64
2022/08/07 10:35:32;;;;;;;3.88;1.40;;;;;;;21.72;42.53;101888.09;6021709;28;20046;-65
2022/08/07 10:38:50;;;;;;;2.92;1.08;;;;;;;22.02;43.52;101872.66;6022418;28;20068;-65
2022/08/07 10:41:52;;;;;;;2.78;1.30;;;;;;;22.05;40.78;101859.63;6011688;28;20037;-66
2022/08/07 10:44:57;;;;;;;2.15;0.93;;;;;;;21.88;40.21;101872.53;6017755;28;20030;-65
2022/08/07 10:48:14;;;;;;;3.83;1.17;;;;;;;22.22;40.06;101868.31;6021093;28;20319;-65
2022/08/07 10:51:22;;;;;;;1.60;0.90;;;;;;;22.54;38.39;101868.59;6021635;28;20038;-64
2022/08/07 10:54:25;;;;;;;4.75;1.17;;;;;;;23.35;39.20;101845.38;6022627;28;20683;-65
2022/08/07 10:57:25;;;;;;;6.45;1.23;;;;;;;24.16;36.18;101855.22;6029512;28;20042;-65
2022/08/07 11:00:23;;;;;;;2.25;0.90;;;;;;;24.47;35.72;101843.75;6022850;28;20081;-65
2022/08/07 11:03:25;;;;;;;3.30;0.98;;;;;;;24.73;36.05;101846.44;6028872;28;20038;-66
2022/08/07 11:06:58;;;;;;;3.28;1.00;;;;;;;24.96;35.02;101839.75;6029247;28;20041;-64
2022/08/07 11:09:57;;;;;;;2.40;1.27;;;;;;;25.33;34.44;101833.56;5985442;28;20042;-66
2022/08/07 11:13:01;;;;;;;4.85;1.30;;;;;;;25.12;34.22;101833.84;6029564;28;20026;-65
2022/08/07 11:16:03;;;;;;;2.17;1.17;;;;;;;24.31;35.20;101830.63;6029026;28;20038;-65
2022/08/07 11:19:17;;;;;;;5.40;1.33;;;;;;;24.03;35.17;101829.94;6028736;28;20038;-65
2022/08/07 11:22:21;;;;;;;2.17;1.13;;;;;;;23.60;35.15;101822.16;6029005;28;20036;-66
2022/08/07 11:25:23;;;;;;;1.77;1.10;;;;;;;23.27;36.66;101820.34;6029897;28;20109;-65
2022/08/07 11:28:24;;;;;;;1.95;1.10;;;;;;;23.08;36.17;101817.34;6028374;28;20034;-65
2022/08/07 11:31:29;;;;;;;2.28;1.20;;;;;;;23.17;37.27;101815.31;6027891;28;20038;-65
2022/08/07 11:35:12;;;;;;;2.55;1.20;;;;;;;23.27;37.39;101813.06;6028173;28;20044;-66
2022/08/07 11:38:17;;;;;;;2.97;1.30;;;;;;;22.97;38.17;101806.25;5998277;28;20098;-64
2022/08/07 11:41:13;;;;;;;3.22;1.30;;;;;;;23.50;35.92;101805.47;6027347;28;20517;-65
2022/08/07 11:44:27;;;;;;;1.83;1.20;;;;;;;23.97;34.62;101800.97;6029935;28;20034;-66
2022/08/07 11:47:46;;;;;;;3.30;1.38;;;;;;;24.58;35.11;101798.88;6028126;28;20046;-66
2022/08/07 11:51:08;;;;;;;3.20;1.40;;;;;;;24.98;34.00;101799.66;6022239;28;20115;-65
2022/08/07 11:54:41;;;;;;;3.40;1.13;;;;;;;25.08;31.98;101783.75;6023444;28;20044;-65
2022/08/07 11:57:43;;;;;;;3.08;1.42;;;;;;;24.71;32.73;101782.56;6025908;28;20026;-65
2022/08/07 12:00:57;;;;;;;1.90;1.15;;;;;;;25.26;31.41;101783.88;6027637;28;20033;-65
2022/08/07 12:04:16;;;;;;;1.67;1.05;;;;;;;25.97;30.98;101779.91;6023810;28;20045;-65
2022/08/07 12:07:33;;;;;;;2.22;1.20;;;;;;;25.68;30.73;101774.28;6021755;28;20409;-65
2022/08/07 12:10:41;;;;;;;2.35;1.25;;;;;;;25.77;29.96;101768.34;6023764;28;20449;-66
2022/08/07 12:14:00;;;;;;;4.03;1.20;;;;;;;25.86;31.33;101777.91;6024268;28;20046;-66
2022/08/07 12:17:02;;;;;;;2.08;1.00;;;;;;;25.83;30.53;101769.34;6025553;28;20055;-64
2022/08/07 12:20:03;;;;;;;3.05;1.00;;;;;;;25.55;31.85;101769.72;6025270;28;20034;-65
2022/08/07 12:23:13;;;;;;;2.20;1.05;;;;;;;25.75;30.77;101754.13;6024031;28;20693;-65
2022/08/07 12:26:26;;;;;;;2.75;1.40;;;;;;;25.61;31.28;101752.56;6024205;28;20164;-66
2022/08/07 12:29:30;;;;;;;3.55;1.30;;;;;;;25.95;30.81;101754.00;6025533;28;20038;-65
2022/08/07 12:32:41;;;;;;;5.10;1.23;;;;;;;25.70;30.51;101756.69;6016442;28;20027;-65
2022/08/07 12:35:38;;;;;;;1.50;1.05;;;;;;;25.57;30.75;101762.22;6011072;28;20137;-65
2022/08/07 12:38:34;;;;;;;3.17;1.30;;;;;;;25.46;30.53;101738.44;6024952;28;20042;-65
2022/08/07 12:41:30;;;;;;;5.55;1.27;;;;;;;25.91;30.15;101734.56;6022803;28;20549;-65
2022/08/07 12:44:26;;;;;;;2.83;1.20;;;;;;;25.83;29.22;101739.44;6023811;28;20034;-66
2022/08/07 12:47:25;;;;;;;2.90;1.42;;;;;;;25.90;29.41;101732.88;6023333;28;20113;-65
2022/08/07 12:50:59;;;;;;;1.73;1.08;;;;;;;26.44;28.69;101742.28;6024271;28;20035;-66
2022/08/07 12:54:08;;;;;;;4.20;1.58;;;;;;;26.39;28.35;101723.06;5973859;28;20038;-66
2022/08/07 12:57:04;;;;;;;3.00;1.10;;;;;;;26.39;28.25;101729.31;6040053;28;20070;-64
2022/08/07 13:00:02;;;;;;;4.13;1.30;;;;;;;26.32;28.78;101725.84;6023018;28;20027;-66
2022/08/07 13:03:11;;;;;;;2.70;1.20;;;;;;;26.69;28.65;101726.69;6024305;28;20031;-66
2022/08/07 13:06:32;;;;;;;2.45;1.10;;;;;;;26.97;28.09;101718.84;6023091;28;20109;-66
2022/08/07 13:09:30;;;;;;;2.78;1.10;;;;;;;26.59;27.40;101716.34;6023026;28;20042;-66
2022/08/07 13:12:38;;;;;;;1.80;0.90;;;;;;;26.63;28.81;101716.72;6023476;28;20153;-66
2022/08/07 13:15:56;;;;;;;1.55;1.00;;;;;;;27.08;27.54;101709.88;6024418;28;20034;-65
2022/08/07 13:19:08;;;;;;;2.17;1.08;;;;;;;26.58;27.96;101713.84;6021607;28;20405;-65
2022/08/07 13:22:09;;;;;;;4.45;1.25;;;;;;;25.56;28.77;101698.06;6021290;28;20034;-66
2022/08/07 13:25:12;;;;;;;3.45;1.02;;;;;;;25.33;28.56;101716.75;6022636;28;20084;-64
2022/08/07 13:28:18;;;;;;;2.25;1.00;;;;;;;26.31;28.42;101696.16;6024028;28;20358;-66
2022/08/07 13:31:51;;;;;;;2.90;1.10;;;;;;;25.94;27.30;101704.22;6022879;28;20470;-66
2022/08/07 13:35:00;;;;;;;2.42;0.80;;;;;;;26.50;27.99;101695.09;6003756;28;20051;-66
2022/08/07 13:38:02;;;;;;;3.75;0.90;;;;;;;26.46;27.26;101691.16;6022155;28;20470;-67
2022/08/07 13:41:21;;;;;;;2.47;1.02;;;;;;;26.47;27.45;101704.53;6022994;28;20454;-66
2022/08/07 13:44:27;;;;;;;2.60;1.15;;;;;;;26.02;29.05;101689.50;6023889;28;20089;-66
2022/08/07 13:47:26;;;;;;;3.58;1.13;;;;;;;25.77;29.55;101689.50;6023806;28;20454;-67
2022/08/07 13:50:24;;;;;;;3.45;1.30;;;;;;;24.47;30.25;101696.47;6022562;28;20034;-67
2022/08/07 13:53:25;;;;;;;3.15;1.08;;;;;;;24.01;31.17;101678.38;6023341;28;20038;-65
2022/08/07 13:56:22;;;;;;;1.30;0.95;;;;;;;24.19;31.65;101675.03;6021755;28;20030;-66
2022/08/07 13:59:25;;;;;;;4.43;0.98;;;;;;;24.03;31.93;101670.03;6038351;28;20034;-65
2022/08/07 14:02:24;;;;;;;3.08;1.10;;;;;;;23.74;32.25;101681.31;6037269;28;20378;-66
2022/08/07 14:05:21;;;;;;;1.52;1.08;;;;;;;23.77;31.77;101676.31;6038161;28;20329;-67
2022/08/07 14:08:19;;;;;;;2.97;1.05;;;;;;;23.68;31.83;101667.56;6023160;28;20038;-66
2022/08/07 14:11:16;;;;;;;4.72;1.30;;;;;;;23.97;31.87;101660.06;6037481;28;20536;-65
2022/08/07 14:14:14;;;;;;;1.73;1.02;;;;;;;24.25;31.83;101663.34;6022939;28;20462;-66